createdAt,value
2022-11-12T00:04:04.038Z,994.84
2022-11-12T00:16:04.462Z,994.92
2022-11-12T00:28:04.913Z,994.89
2022-11-12T00:40:05.373Z,994.79
2022-11-12T00:52:05.830Z,994.71
2022-11-12T01:04:06.276Z,994.69
2022-11-12T01:16:06.716Z,994.61
2022-11-12T01:28:07.162Z,994.54
2022-11-12T01:40:07.677Z,994.30
2022-11-12T01:52:08.072Z,994.16
2022-11-12T02:04:08.547Z,994.13
2022-11-12T02:16:08.958Z,994.19
2022-11-12T02:28:09.451Z,994.22
2022-11-12T02:40:09.877Z,994.12
2022-11-12T02:52:10.318Z,994.16
2022-11-12T03:04:10.778Z,994.17
2022-11-12T03:16:11.243Z,994.12
2022-11-12T03:28:11.658Z,994.18
2022-11-12T03:40:12.137Z,994.23
2022-11-12T03:52:12.593Z,993.99
2022-11-12T04:04:13.020Z,993.90
2022-11-12T04:16:13.481Z,993.77
2022-11-12T04:28:13.919Z,993.85
2022-11-12T04:40:14.393Z,993.90
2022-11-12T04:52:14.875Z,993.79
2022-11-12T05:04:15.320Z,993.65
2022-11-12T05:16:15.733Z,993.80
2022-11-12T05:28:16.190Z,993.64
2022-11-12T05:40:16.690Z,993.75
2022-11-12T05:52:17.119Z,993.76
2022-11-12T06:04:17.571Z,993.84
2022-11-12T06:16:18.014Z,993.93
2022-11-12T06:28:18.523Z,994.03
2022-11-12T06:40:18.913Z,994.20
2022-11-12T06:52:19.358Z,994.12
2022-11-12T07:04:19.825Z,994.20
2022-11-12T07:16:20.291Z,994.21
2022-11-12T07:28:20.717Z,994.04
2022-11-12T07:40:21.144Z,993.97
2022-11-12T07:52:21.581Z,994.07
2022-11-12T08:04:22.094Z,994.12
2022-11-12T08:16:22.532Z,994.14
2022-11-12T08:28:23.079Z,994.11
2022-11-12T08:40:23.426Z,994.28
2022-11-12T08:52:23.879Z,994.27
2022-11-12T09:04:24.333Z,994.38
2022-11-12T09:16:24.800Z,994.38
2022-11-12T09:28:25.578Z,994.47
2022-11-12T09:40:25.705Z,994.54
2022-11-12T09:52:26.175Z,994.40
2022-11-12T10:04:26.601Z,994.42
2022-11-12T10:16:27.054Z,994.26
2022-11-12T10:28:27.888Z,994.31
2022-11-12T10:40:27.993Z,994.22
2022-11-12T10:52:28.424Z,994.03
2022-11-12T11:04:28.886Z,993.99
2022-11-12T11:16:29.364Z,994.03
2022-11-12T11:28:30.042Z,994.01
2022-11-12T11:40:30.281Z,993.91
2022-11-12T11:52:30.656Z,993.91
2022-11-12T12:04:31.176Z,993.92
2022-11-12T12:16:31.610Z,993.65
2022-11-12T12:28:32.042Z,993.68
2022-11-12T12:40:32.535Z,993.63
2022-11-12T12:52:33.005Z,993.38
2022-11-12T13:04:33.443Z,993.38
2022-11-12T13:16:33.868Z,993.48
2022-11-12T13:28:34.305Z,993.49
2022-11-12T13:40:34.818Z,993.45
2022-11-12T13:52:35.286Z,993.36
2022-11-12T14:04:35.706Z,993.35
2022-11-12T14:16:36.173Z,993.25
2022-11-12T14:28:36.667Z,993.38
2022-11-12T14:40:37.049Z,993.16
2022-11-12T14:52:37.531Z,993.16
2022-11-12T15:04:37.982Z,993.02
2022-11-12T15:16:38.458Z,992.99
2022-11-12T15:28:38.881Z,993.18
2022-11-12T15:40:39.341Z,993.24
2022-11-12T15:52:39.775Z,993.35
2022-11-12T16:04:40.273Z,993.45
2022-11-12T16:16:40.719Z,993.46
2022-11-12T16:28:41.175Z,993.59
2022-11-12T16:40:41.641Z,993.62
2022-11-12T16:52:42.100Z,993.67
2022-11-12T17:04:42.531Z,993.57
2022-11-12T17:16:42.951Z,993.74
2022-11-12T17:28:43.398Z,993.72
2022-11-12T17:40:43.896Z,993.67
2022-11-12T17:52:44.308Z,993.66
2022-11-12T18:04:44.760Z,993.70
2022-11-12T18:16:45.205Z,993.63
2022-11-12T18:28:45.726Z,993.74
2022-11-12T18:40:46.102Z,993.72
2022-11-12T18:52:46.608Z,993.70
2022-11-12T19:04:47.045Z,993.75
2022-11-12T19:16:47.484Z,993.68
2022-11-12T19:28:47.936Z,993.67
2022-11-12T19:40:48.372Z,993.67
2022-11-12T19:52:48.860Z,993.62
2022-11-12T20:04:49.351Z,993.66
2022-11-12T20:16:49.760Z,993.74
2022-11-12T20:28:50.266Z,993.72
2022-11-12T20:40:50.634Z,993.86
2022-11-12T20:52:51.102Z,993.77
2022-11-12T21:04:51.563Z,993.73
2022-11-12T21:16:51.979Z,993.69
2022-11-12T21:28:52.476Z,993.72
2022-11-12T21:40:52.924Z,993.73
2022-11-12T21:52:53.363Z,993.78
2022-11-12T22:04:53.849Z,993.64
2022-11-12T22:16:54.250Z,993.70
2022-11-12T22:28:54.760Z,993.64
2022-11-12T22:40:55.192Z,993.59
2022-11-12T22:52:55.623Z,993.46
2022-11-12T23:04:56.085Z,993.40
2022-11-12T23:16:56.538Z,993.37
2022-11-12T23:28:57.001Z,993.32
2022-11-12T23:40:57.457Z,993.35
2022-11-12T23:52:57.860Z,993.25
